Ocean Beaut — WDD7485 — position and weather

sailwx.info

Track history (hours):
 
Tides and Currents Weather Stations Pressure Air Temp Water Temp Dewpoint Dewpoint Depression Visibility Wind Speed Wind Dir Waves Ship Positions

Ocean Beaut

Owner: John Moreland Fishing Inc., Astoria, OR. More information available from US FCC via Universal Licensing System.

Last reported at 2016-Aug-25 23:33 UTC. Time now 2016-Aug-25 23:48 UTC.
Position N 46°46' W 124°52'.

Length 20 m.

Type: Fishing. MMSI: 367187080.

Date/timePositionNaut miles runAvg speedWind from/ knotsBaromVisibWave heightAir tempDewpointWater temp
2016-Aug-25 23:33N 46°46' W 124°52'5 5.0
2016-Aug-25 22:33N 46°50' W 124°55'1 0.6
2016-Aug-25 21:33N 46°49' W 124°56'2 2.2
2016-Aug-25 20:33N 46°48' W 124°54'2 2.3
2016-Aug-25 19:33N 46°46' W 124°53'3 2.2
2016-Aug-25 18:19N 46°43' W 124°51'2 2.3
2016-Aug-25 17:33N 46°42' W 124°50'2 2.3
2016-Aug-25 16:29N 46°39' W 124°49'3 2.7
2016-Aug-25 15:33N 46°37' W 124°47'7 7.4
2016-Aug-25 14:33N 46°33' W 124°38'7 7.4
2016-Aug-25 13:33N 46°28' W 124°30'7 7.5
2016-Aug-25 12:33N 46°23' W 124°22'8 8.0
2016-Aug-25 11:34N 46°18' W 124°13'8 7.6
2016-Aug-25 10:33N 46°16' W 124°03'8 8.4
2016-Aug-25 09:33N 46°11' W 123°52'0 0.4
2016-Aug-25 08:32N 46°11' W 123°52'0 0.0
2016-Aug-25 07:32N 46°11' W 123°52'0 0.0
2016-Aug-25 06:32N 46°11' W 123°52'0 0.0
2016-Aug-25 04:32N 46°11' W 123°52'0 0.0
2016-Aug-25 03:32N 46°11' W 123°52'0 0.0
2016-Aug-25 02:32N 46°11' W 123°51'0 0.0
2016-Aug-25 01:32N 46°11' W 123°51'2 2.3
2016-Aug-25 00:33N 46°12' W 123°48'0 0.2
2016-Aug-24 23:28N 46°12' W 123°48'0 0.0
2016-Aug-24 22:31N 46°12' W 123°48'0 0.0
2016-Aug-24 21:31N 46°12' W 123°48'0 0.0
2016-Aug-24 20:31N 46°12' W 123°48'0 0.0
2016-Aug-24 19:31N 46°12' W 123°48'0 0.0
2016-Aug-24 18:31N 46°12' W 123°48'0 0.0
2016-Aug-24 17:31N 46°12' W 123°48'0 0.0
2016-Aug-24 16:31N 46°12' W 123°48'0 0.0
2016-Aug-24 15:31N 46°12' W 123°48'0 0.0
2016-Aug-24 14:31N 46°12' W 123°48'0 0.0
2016-Aug-24 13:28N 46°12' W 123°48'0 0.0
2016-Aug-24 12:31N 46°12' W 123°48'0 0.0
2016-Aug-24 11:31N 46°12' W 123°48'0 0.0
2016-Aug-24 10:31N 46°12' W 123°48'0 0.0
2016-Aug-24 09:31N 46°12' W 123°48'0 0.0
2016-Aug-24 08:31N 46°12' W 123°48'0 0.0
2016-Aug-24 07:31N 46°12' W 123°48'0 0.0
2016-Aug-24 06:28N 46°12' W 123°48'0 0.0
2016-Aug-24 04:31N 46°12' W 123°48'0 0.0
2016-Aug-24 03:31N 46°12' W 123°48'0 0.0
2016-Aug-24 02:31N 46°12' W 123°48'0 0.0
2016-Aug-24 01:31N 46°12' W 123°48'0 0.0
2016-Aug-24 00:31N 46°12' W 123°48'0 0.0
2016-Aug-23 23:32N 46°12' W 123°48'0 0.0
2016-Aug-23 22:32N 46°12' W 123°48'0 0.0
2016-Aug-23 21:29N 46°12' W 123°48'0 0.0
2016-Aug-23 20:31N 46°12' W 123°48'0 0.0
2016-Aug-23 19:32N 46°12' W 123°48'0 0.0
2016-Aug-23 18:31N 46°12' W 123°48'0 0.0
2016-Aug-23 17:32N 46°12' W 123°48'0 0.0
2016-Aug-23 16:32N 46°12' W 123°48'0 0.0
2016-Aug-23 15:32N 46°12' W 123°48'0 0.0
2016-Aug-23 14:32N 46°12' W 123°48'0 0.0
2016-Aug-23 13:32N 46°12' W 123°48'0 0.0
2016-Aug-23 12:32N 46°12' W 123°48'0 0.0
2016-Aug-23 11:32N 46°12' W 123°48'0 0.0
2016-Aug-23 10:32N 46°12' W 123°48'0 0.0
2016-Aug-23 09:32N 46°12' W 123°48'0 0.0
2016-Aug-23 08:32N 46°12' W 123°48'0 0.0
2016-Aug-23 07:29N 46°12' W 123°48'0 0.0
2016-Aug-23 06:32N 46°12' W 123°48'0 0.0
2016-Aug-23 05:32N 46°12' W 123°48'0 0.0
2016-Aug-23 04:32N 46°12' W 123°48'0 0.0
2016-Aug-23 03:32N 46°12' W 123°48'0 0.0
2016-Aug-23 02:32N 46°12' W 123°48'0 0.0
2016-Aug-23 01:32N 46°12' W 123°48'0 0.0
2016-Aug-23 00:32N 46°12' W 123°48'0 0.0
2016-Aug-22 23:32N 46°12' W 123°48'0 0.0
2016-Aug-22 22:32N 46°12' W 123°48'0 0.0
2016-Aug-22 21:32N 46°12' W 123°48'0 0.0
2016-Aug-22 20:32N 46°12' W 123°48'0 0.0
2016-Aug-22 19:32N 46°12' W 123°48'0 0.0
2016-Aug-22 18:32N 46°12' W 123°48'0 0.0
2016-Aug-22 17:32N 46°12' W 123°48'0 0.0
2016-Aug-22 16:32N 46°12' W 123°48'0 0.0
2016-Aug-22 15:32N 46°12' W 123°48'0 0.0
2016-Aug-22 14:32N 46°12' W 123°48'0 0.0
2016-Aug-22 13:32N 46°12' W 123°48'0 0.0
2016-Aug-22 12:32N 46°12' W 123°48'0 0.0
2016-Aug-22 11:32N 46°12' W 123°48'0 0.0
2016-Aug-22 10:32N 46°12' W 123°48'0 0.0
2016-Aug-22 09:32N 46°12' W 123°48'0 0.0
2016-Aug-22 08:32N 46°12' W 123°48'0 0.0
2016-Aug-22 07:32N 46°12' W 123°48'0 0.0
2016-Aug-22 06:29N 46°12' W 123°48'0 0.0
2016-Aug-22 05:29N 46°12' W 123°48'0 0.0
2016-Aug-22 04:32N 46°12' W 123°48'0 0.0
2016-Aug-22 03:32N 46°12' W 123°48'0 0.0
2016-Aug-22 02:32N 46°12' W 123°48'0 0.0
2016-Aug-22 01:32N 46°12' W 123°48'0 0.0
2016-Aug-22 00:32N 46°12' W 123°48'0 0.0
2016-Aug-21 23:32N 46°12' W 123°48'0 0.0
2016-Aug-21 22:32N 46°12' W 123°48'0 0.0
2016-Aug-21 21:32N 46°12' W 123°48'0 0.0
2016-Aug-21 20:32N 46°12' W 123°48'0 0.0
2016-Aug-21 19:32N 46°12' W 123°48'0 0.0
2016-Aug-21 18:32N 46°12' W 123°48'0 0.0
2016-Aug-21 17:32N 46°12' W 123°48'0 0.0
2016-Aug-21 16:29N 46°12' W 123°48'0 0.0
2016-Aug-21 15:32N 46°12' W 123°48'0 0.0
2016-Aug-21 14:32N 46°12' W 123°48'0 0.0
2016-Aug-21 13:32N 46°12' W 123°48'0 0.0
2016-Aug-21 12:32N 46°12' W 123°48'0 0.0
2016-Aug-21 11:32N 46°12' W 123°48'0 0.0
2016-Aug-21 10:32N 46°12' W 123°48'0 0.0
2016-Aug-21 09:32N 46°12' W 123°48'0 0.0
2016-Aug-21 08:32N 46°12' W 123°48'0 0.0
2016-Aug-21 07:32N 46°12' W 123°48'0 0.0
2016-Aug-21 06:32N 46°12' W 123°48'0 0.0
2016-Aug-21 05:32N 46°12' W 123°48'0 0.0
2016-Aug-21 04:32N 46°12' W 123°48'0 0.0
2016-Aug-21 03:32N 46°12' W 123°48'0 0.0
2016-Aug-21 02:32N 46°12' W 123°48'0 0.0
2016-Aug-21 01:32N 46°12' W 123°48'0 0.0
2016-Aug-21 00:32N 46°12' W 123°48'0 0.0
2016-Aug-20 23:29N 46°12' W 123°48'0 0.0
2016-Aug-20 22:32N 46°12' W 123°48'0 0.0
2016-Aug-20 21:32N 46°12' W 123°48'0 0.0
2016-Aug-20 20:32N 46°12' W 123°48'0 0.0
2016-Aug-20 19:32N 46°12' W 123°48'0 0.0
2016-Aug-20 18:32N 46°12' W 123°48'0 0.0
2016-Aug-20 17:32N 46°12' W 123°48'0 0.0
2016-Aug-20 16:32N 46°12' W 123°48'0 0.0
2016-Aug-20 15:29N 46°12' W 123°48'0 0.0
2016-Aug-20 14:32N 46°12' W 123°48'0 0.0
2016-Aug-20 13:32N 46°12' W 123°48'0 0.0
2016-Aug-20 12:32N 46°12' W 123°48'0 0.0
2016-Aug-20 11:32N 46°12' W 123°48'0 0.0
2016-Aug-20 10:32N 46°12' W 123°48'0 0.0
2016-Aug-20 09:32N 46°12' W 123°48'0 0.0
2016-Aug-20 08:32N 46°12' W 123°48'0 0.0
2016-Aug-20 07:32N 46°12' W 123°48'0 0.0
2016-Aug-20 06:32N 46°12' W 123°48'0 0.0
2016-Aug-20 05:32N 46°12' W 123°48'0 0.0
2016-Aug-20 04:32N 46°12' W 123°48'0 0.0
2016-Aug-20 03:29N 46°12' W 123°48'0 0.0
2016-Aug-20 02:32N 46°12' W 123°48'0 0.0
2016-Aug-20 01:32N 46°12' W 123°48'0 0.0
2016-Aug-20 00:32N 46°12' W 123°48'0 0.0
2016-Aug-19 23:32N 46°12' W 123°48'0 0.0
2016-Aug-19 22:32N 46°12' W 123°48'0 0.0
2016-Aug-19 21:32N 46°12' W 123°48'0 0.0
2016-Aug-19 20:32N 46°12' W 123°48'1 1.4
2016-Aug-19 19:33N 46°12' W 123°50'1 1.2
2016-Aug-19 18:33N 46°11' W 123°52'0 0.1
2016-Aug-19 17:33N 46°11' W 123°52'0 0.2
2016-Aug-19 16:33N 46°11' W 123°51'0 0.0
2016-Aug-19 15:33N 46°11' W 123°51'0 0.0
2016-Aug-19 14:33N 46°11' W 123°51'0 0.0
2016-Aug-19 13:33N 46°11' W 123°51'0 0.0
2016-Aug-19 12:33N 46°11' W 123°51'0 0.0
2016-Aug-19 11:33N 46°11' W 123°51'2 2.3
2016-Aug-19 10:31N 46°12' W 123°48'0 0.0
2016-Aug-19 09:31N 46°12' W 123°48'0 0.0
2016-Aug-19 08:31N 46°12' W 123°48'0 0.0
2016-Aug-19 07:31N 46°12' W 123°48'0 0.0
2016-Aug-19 06:31N 46°12' W 123°48'0 0.0
2016-Aug-19 05:31N 46°12' W 123°48'0 0.0
2016-Aug-19 04:31N 46°12' W 123°48'0 0.0
2016-Aug-19 03:31N 46°12' W 123°48'0 0.0
2016-Aug-19 02:31N 46°12' W 123°48'0 0.0
2016-Aug-19 01:28N 46°12' W 123°48'0 0.0
2016-Aug-19 00:31N 46°12' W 123°48'0 0.0
2016-Aug-18 23:31N 46°12' W 123°48'5 5.4
2016-Aug-18 22:33N 46°12' W 123°56'7 7.4
2016-Aug-18 21:33N 46°15' W 124°05'6 5.8
2016-Aug-18 20:33N 46°18' W 124°13'8 8.4
2016-Aug-18 19:33N 46°23' W 124°22'3 2.8
2016-Aug-18 18:33N 46°25' W 124°25'2 2.3
2016-Aug-18 17:32N 46°23' W 124°23'2 2.2
2016-Aug-18 16:33N 46°21' W 124°22'2 2.4
2016-Aug-18 15:33N 46°19' W 124°20'0 0.2
2016-Aug-18 14:33N 46°19' W 124°20'2 2.1
2016-Aug-18 13:33N 46°19' W 124°23'2 2.4
2016-Aug-18 12:33N 46°20' W 124°26'2 2.4
2016-Aug-18 11:33N 46°20' W 124°30'2 2.3
2016-Aug-18 10:33N 46°21' W 124°33'1 1.3
2016-Aug-18 09:33N 46°20' W 124°35'1 0.8
2016-Aug-18 08:33N 46°21' W 124°35'1 1.1
2016-Aug-18 07:34N 46°21' W 124°34'1 0.8
2016-Aug-18 06:33N 46°21' W 124°33'1 1.0
2016-Aug-18 05:34N 46°22' W 124°34'3 2.7
2016-Aug-18 04:33N 46°22' W 124°30'5 5.0
2016-Aug-18 03:33N 46°19' W 124°24'2 2.1
2016-Aug-18 02:33N 46°19' W 124°21'2 2.4
2016-Aug-18 01:33N 46°20' W 124°24'2 2.4
2016-Aug-18 00:32N 46°22' W 124°25'2 2.5
2016-Aug-17 23:33N 46°25' W 124°26'2 1.5
2016-Aug-17 22:32N 46°26' W 124°25'2 1.9
2016-Aug-17 21:33N 46°24' W 124°25'2 2.3
2016-Aug-17 20:33N 46°22' W 124°24'2 2.3
2016-Aug-17 19:33N 46°20' W 124°22'3 2.6
2016-Aug-17 18:33N 46°18' W 124°19'4 4.3
2016-Aug-17 17:33N 46°14' W 124°19'2 2.3
2016-Aug-17 16:33N 46°12' W 124°20'2 2.5
2016-Aug-17 15:33N 46°09' W 124°20'2 2.4
2016-Aug-17 14:33N 46°07' W 124°20'2 2.3
2016-Aug-17 13:33N 46°05' W 124°19'1 1.0
2016-Aug-17 12:33N 46°05' W 124°19'2 2.4
2016-Aug-17 11:33N 46°08' W 124°20'2 2.5
2016-Aug-17 10:34N 46°10' W 124°20'2 2.5
2016-Aug-17 09:33N 46°13' W 124°19'4 4.3
2016-Aug-17 08:33N 46°17' W 124°21'8 8.0
2016-Aug-17 07:33N 46°25' W 124°23'8 7.9
2016-Aug-17 06:33N 46°33' W 124°24'1 1.4
2016-Aug-17 05:33N 46°34' W 124°25'2 2.4
2016-Aug-17 04:33N 46°32' W 124°25'2 2.4
2016-Aug-17 03:33N 46°29' W 124°25'2 2.4
2016-Aug-17 02:33N 46°27' W 124°24'2 2.4
2016-Aug-17 01:33N 46°25' W 124°26'1 1.4
2016-Aug-17 00:34N 46°23' W 124°25'2 2.2
2016-Aug-16 23:33N 46°21' W 124°25'2 2.3
2016-Aug-16 22:33N 46°19' W 124°23'3 2.5
2016-Aug-16 21:33N 46°17' W 124°21'2 1.7
2016-Aug-16 20:33N 46°19' W 124°20'2 2.4
2016-Aug-16 19:33N 46°21' W 124°21'2 2.4
2016-Aug-16 18:33N 46°23' W 124°23'2 2.4
2016-Aug-16 17:34N 46°25' W 124°24'1 1.0
2016-Aug-16 16:33N 46°25' W 124°26'2 2.4
2016-Aug-16 15:34N 46°23' W 124°24'2 2.4
2016-Aug-16 14:33N 46°21' W 124°23'2 2.5
2016-Aug-16 13:33N 46°19' W 124°20'0 0.3
2016-Aug-16 12:33N 46°19' W 124°20'2 2.3
2016-Aug-16 11:33N 46°19' W 124°23'2 2.5
2016-Aug-16 10:33N 46°20' W 124°27'2 2.4
2016-Aug-16 09:33N 46°20' W 124°30'2 2.3
2016-Aug-16 08:33N 46°21' W 124°33'5 4.9
2016-Aug-16 07:33N 46°18' W 124°39'16 5.3
2016-Aug-16 04:33N 46°04' W 124°51'2 2.3
2016-Aug-16 03:33N 46°02' W 124°50'2 2.3
2016-Aug-16 02:33N 45°60' W 124°48'2 2.4
2016-Aug-16 01:33N 45°58' W 124°46'2 2.2
2016-Aug-16 00:33N 45°56' W 124°45'2 2.4
2016-Aug-15 23:33N 45°54' W 124°46'  
Track history (hours):
 
Tides and Currents Weather Stations Pressure Air Temp Water Temp Dewpoint Dewpoint Depression Visibility Wind Speed Wind Dir Waves Ship Positions

Ocean Beaut

Owner: John Moreland Fishing Inc., Astoria, OR. More information available from US FCC via Universal Licensing System.

Last reported at 2016-Aug-25 23:33 UTC. Time now 2016-Aug-25 23:48 UTC.
Position N 46°46' W 124°52'.

Length 20 m.

Type: Fishing. MMSI: 367187080.

Date/timePositionNaut miles runAvg speedWind from/ knotsBaromVisibWave heightAir tempDewpointWater temp
2016-Aug-25 23:33N 46°46' W 124°52'5 5.0
2016-Aug-25 22:33N 46°50' W 124°55'1 0.6
2016-Aug-25 21:33N 46°49' W 124°56'2 2.2
2016-Aug-25 20:33N 46°48' W 124°54'2 2.3
2016-Aug-25 19:33N 46°46' W 124°53'3 2.2
2016-Aug-25 18:19N 46°43' W 124°51'2 2.3
2016-Aug-25 17:33N 46°42' W 124°50'2 2.3
2016-Aug-25 16:29N 46°39' W 124°49'3 2.7
2016-Aug-25 15:33N 46°37' W 124°47'7 7.4
2016-Aug-25 14:33N 46°33' W 124°38'7 7.4
2016-Aug-25 13:33N 46°28' W 124°30'7 7.5
2016-Aug-25 12:33N 46°23' W 124°22'8 8.0
2016-Aug-25 11:34N 46°18' W 124°13'8 7.6
2016-Aug-25 10:33N 46°16' W 124°03'8 8.4
2016-Aug-25 09:33N 46°11' W 123°52'0 0.4
2016-Aug-25 08:32N 46°11' W 123°52'0 0.0
2016-Aug-25 07:32N 46°11' W 123°52'0 0.0
2016-Aug-25 06:32N 46°11' W 123°52'0 0.0
2016-Aug-25 04:32N 46°11' W 123°52'0 0.0
2016-Aug-25 03:32N 46°11' W 123°52'0 0.0
2016-Aug-25 02:32N 46°11' W 123°51'0 0.0
2016-Aug-25 01:32N 46°11' W 123°51'2 2.3
2016-Aug-25 00:33N 46°12' W 123°48'0 0.2
2016-Aug-24 23:28N 46°12' W 123°48'0 0.0
2016-Aug-24 22:31N 46°12' W 123°48'0 0.0
2016-Aug-24 21:31N 46°12' W 123°48'0 0.0
2016-Aug-24 20:31N 46°12' W 123°48'0 0.0
2016-Aug-24 19:31N 46°12' W 123°48'0 0.0
2016-Aug-24 18:31N 46°12' W 123°48'0 0.0
2016-Aug-24 17:31N 46°12' W 123°48'0 0.0
2016-Aug-24 16:31N 46°12' W 123°48'0 0.0
2016-Aug-24 15:31N 46°12' W 123°48'0 0.0
2016-Aug-24 14:31N 46°12' W 123°48'0 0.0
2016-Aug-24 13:28N 46°12' W 123°48'0 0.0
2016-Aug-24 12:31N 46°12' W 123°48'0 0.0
2016-Aug-24 11:31N 46°12' W 123°48'0 0.0
2016-Aug-24 10:31N 46°12' W 123°48'0 0.0
2016-Aug-24 09:31N 46°12' W 123°48'0 0.0
2016-Aug-24 08:31N 46°12' W 123°48'0 0.0
2016-Aug-24 07:31N 46°12' W 123°48'0 0.0
2016-Aug-24 06:28N 46°12' W 123°48'0 0.0
2016-Aug-24 04:31N 46°12' W 123°48'0 0.0
2016-Aug-24 03:31N 46°12' W 123°48'0 0.0
2016-Aug-24 02:31N 46°12' W 123°48'0 0.0
2016-Aug-24 01:31N 46°12' W 123°48'0 0.0
2016-Aug-24 00:31N 46°12' W 123°48'0 0.0
2016-Aug-23 23:32N 46°12' W 123°48'0 0.0
2016-Aug-23 22:32N 46°12' W 123°48'0 0.0
2016-Aug-23 21:29N 46°12' W 123°48'0 0.0
2016-Aug-23 20:31N 46°12' W 123°48'0 0.0
2016-Aug-23 19:32N 46°12' W 123°48'0 0.0
2016-Aug-23 18:31N 46°12' W 123°48'0 0.0
2016-Aug-23 17:32N 46°12' W 123°48'0 0.0
2016-Aug-23 16:32N 46°12' W 123°48'0 0.0
2016-Aug-23 15:32N 46°12' W 123°48'0 0.0
2016-Aug-23 14:32N 46°12' W 123°48'0 0.0
2016-Aug-23 13:32N 46°12' W 123°48'0 0.0
2016-Aug-23 12:32N 46°12' W 123°48'0 0.0
2016-Aug-23 11:32N 46°12' W 123°48'0 0.0
2016-Aug-23 10:32N 46°12' W 123°48'0 0.0
2016-Aug-23 09:32N 46°12' W 123°48'0 0.0
2016-Aug-23 08:32N 46°12' W 123°48'0 0.0
2016-Aug-23 07:29N 46°12' W 123°48'0 0.0
2016-Aug-23 06:32N 46°12' W 123°48'0 0.0
2016-Aug-23 05:32N 46°12' W 123°48'0 0.0
2016-Aug-23 04:32N 46°12' W 123°48'0 0.0
2016-Aug-23 03:32N 46°12' W 123°48'0 0.0
2016-Aug-23 02:32N 46°12' W 123°48'0 0.0
2016-Aug-23 01:32N 46°12' W 123°48'0 0.0
2016-Aug-23 00:32N 46°12' W 123°48'0 0.0
2016-Aug-22 23:32N 46°12' W 123°48'0 0.0
2016-Aug-22 22:32N 46°12' W 123°48'0 0.0
2016-Aug-22 21:32N 46°12' W 123°48'0 0.0
2016-Aug-22 20:32N 46°12' W 123°48'0 0.0
2016-Aug-22 19:32N 46°12' W 123°48'0 0.0
2016-Aug-22 18:32N 46°12' W 123°48'0 0.0
2016-Aug-22 17:32N 46°12' W 123°48'0 0.0
2016-Aug-22 16:32N 46°12' W 123°48'0 0.0
2016-Aug-22 15:32N 46°12' W 123°48'0 0.0
2016-Aug-22 14:32N 46°12' W 123°48'0 0.0
2016-Aug-22 13:32N 46°12' W 123°48'0 0.0
2016-Aug-22 12:32N 46°12' W 123°48'0 0.0
2016-Aug-22 11:32N 46°12' W 123°48'0 0.0
2016-Aug-22 10:32N 46°12' W 123°48'0 0.0
2016-Aug-22 09:32N 46°12' W 123°48'0 0.0
2016-Aug-22 08:32N 46°12' W 123°48'0 0.0
2016-Aug-22 07:32N 46°12' W 123°48'0 0.0
2016-Aug-22 06:29N 46°12' W 123°48'0 0.0
2016-Aug-22 05:29N 46°12' W 123°48'0 0.0
2016-Aug-22 04:32N 46°12' W 123°48'0 0.0
2016-Aug-22 03:32N 46°12' W 123°48'0 0.0
2016-Aug-22 02:32N 46°12' W 123°48'0 0.0
2016-Aug-22 01:32N 46°12' W 123°48'0 0.0
2016-Aug-22 00:32N 46°12' W 123°48'0 0.0
2016-Aug-21 23:32N 46°12' W 123°48'0 0.0
2016-Aug-21 22:32N 46°12' W 123°48'0 0.0
2016-Aug-21 21:32N 46°12' W 123°48'0 0.0
2016-Aug-21 20:32N 46°12' W 123°48'0 0.0
2016-Aug-21 19:32N 46°12' W 123°48'0 0.0
2016-Aug-21 18:32N 46°12' W 123°48'0 0.0
2016-Aug-21 17:32N 46°12' W 123°48'0 0.0
2016-Aug-21 16:29N 46°12' W 123°48'0 0.0
2016-Aug-21 15:32N 46°12' W 123°48'0 0.0
2016-Aug-21 14:32N 46°12' W 123°48'0 0.0
2016-Aug-21 13:32N 46°12' W 123°48'0 0.0
2016-Aug-21 12:32N 46°12' W 123°48'0 0.0
2016-Aug-21 11:32N 46°12' W 123°48'0 0.0
2016-Aug-21 10:32N 46°12' W 123°48'0 0.0
2016-Aug-21 09:32N 46°12' W 123°48'0 0.0
2016-Aug-21 08:32N 46°12' W 123°48'0 0.0
2016-Aug-21 07:32N 46°12' W 123°48'0 0.0
2016-Aug-21 06:32N 46°12' W 123°48'0 0.0
2016-Aug-21 05:32N 46°12' W 123°48'0 0.0
2016-Aug-21 04:32N 46°12' W 123°48'0 0.0
2016-Aug-21 03:32N 46°12' W 123°48'0 0.0
2016-Aug-21 02:32N 46°12' W 123°48'0 0.0
2016-Aug-21 01:32N 46°12' W 123°48'0 0.0
2016-Aug-21 00:32N 46°12' W 123°48'0 0.0
2016-Aug-20 23:29N 46°12' W 123°48'0 0.0
2016-Aug-20 22:32N 46°12' W 123°48'0 0.0
2016-Aug-20 21:32N 46°12' W 123°48'0 0.0
2016-Aug-20 20:32N 46°12' W 123°48'0 0.0
2016-Aug-20 19:32N 46°12' W 123°48'0 0.0
2016-Aug-20 18:32N 46°12' W 123°48'0 0.0
2016-Aug-20 17:32N 46°12' W 123°48'0 0.0
2016-Aug-20 16:32N 46°12' W 123°48'0 0.0
2016-Aug-20 15:29N 46°12' W 123°48'0 0.0
2016-Aug-20 14:32N 46°12' W 123°48'0 0.0
2016-Aug-20 13:32N 46°12' W 123°48'0 0.0
2016-Aug-20 12:32N 46°12' W 123°48'0 0.0
2016-Aug-20 11:32N 46°12' W 123°48'0 0.0
2016-Aug-20 10:32N 46°12' W 123°48'0 0.0
2016-Aug-20 09:32N 46°12' W 123°48'0 0.0
2016-Aug-20 08:32N 46°12' W 123°48'0 0.0
2016-Aug-20 07:32N 46°12' W 123°48'0 0.0
2016-Aug-20 06:32N 46°12' W 123°48'0 0.0
2016-Aug-20 05:32N 46°12' W 123°48'0 0.0
2016-Aug-20 04:32N 46°12' W 123°48'0 0.0
2016-Aug-20 03:29N 46°12' W 123°48'0 0.0
2016-Aug-20 02:32N 46°12' W 123°48'0 0.0
2016-Aug-20 01:32N 46°12' W 123°48'0 0.0
2016-Aug-20 00:32N 46°12' W 123°48'0 0.0
2016-Aug-19 23:32N 46°12' W 123°48'0 0.0
2016-Aug-19 22:32N 46°12' W 123°48'0 0.0
2016-Aug-19 21:32N 46°12' W 123°48'0 0.0
2016-Aug-19 20:32N 46°12' W 123°48'1 1.4
2016-Aug-19 19:33N 46°12' W 123°50'1 1.2
2016-Aug-19 18:33N 46°11' W 123°52'0 0.1
2016-Aug-19 17:33N 46°11' W 123°52'0 0.2
2016-Aug-19 16:33N 46°11' W 123°51'0 0.0
2016-Aug-19 15:33N 46°11' W 123°51'0 0.0
2016-Aug-19 14:33N 46°11' W 123°51'0 0.0
2016-Aug-19 13:33N 46°11' W 123°51'0 0.0
2016-Aug-19 12:33N 46°11' W 123°51'0 0.0
2016-Aug-19 11:33N 46°11' W 123°51'2 2.3
2016-Aug-19 10:31N 46°12' W 123°48'0 0.0
2016-Aug-19 09:31N 46°12' W 123°48'0 0.0
2016-Aug-19 08:31N 46°12' W 123°48'0 0.0
2016-Aug-19 07:31N 46°12' W 123°48'0 0.0
2016-Aug-19 06:31N 46°12' W 123°48'0 0.0
2016-Aug-19 05:31N 46°12' W 123°48'0 0.0
2016-Aug-19 04:31N 46°12' W 123°48'0 0.0
2016-Aug-19 03:31N 46°12' W 123°48'0 0.0
2016-Aug-19 02:31N 46°12' W 123°48'0 0.0
2016-Aug-19 01:28N 46°12' W 123°48'0 0.0
2016-Aug-19 00:31N 46°12' W 123°48'0 0.0
2016-Aug-18 23:31N 46°12' W 123°48'5 5.4
2016-Aug-18 22:33N 46°12' W 123°56'7 7.4
2016-Aug-18 21:33N 46°15' W 124°05'6 5.8
2016-Aug-18 20:33N 46°18' W 124°13'8 8.4
2016-Aug-18 19:33N 46°23' W 124°22'3 2.8
2016-Aug-18 18:33N 46°25' W 124°25'2 2.3
2016-Aug-18 17:32N 46°23' W 124°23'2 2.2
2016-Aug-18 16:33N 46°21' W 124°22'2 2.4
2016-Aug-18 15:33N 46°19' W 124°20'0 0.2
2016-Aug-18 14:33N 46°19' W 124°20'2 2.1
2016-Aug-18 13:33N 46°19' W 124°23'2 2.4
2016-Aug-18 12:33N 46°20' W 124°26'2 2.4
2016-Aug-18 11:33N 46°20' W 124°30'2 2.3
2016-Aug-18 10:33N 46°21' W 124°33'1 1.3
2016-Aug-18 09:33N 46°20' W 124°35'1 0.8
2016-Aug-18 08:33N 46°21' W 124°35'1 1.1
2016-Aug-18 07:34N 46°21' W 124°34'1 0.8
2016-Aug-18 06:33N 46°21' W 124°33'1 1.0
2016-Aug-18 05:34N 46°22' W 124°34'3 2.7
2016-Aug-18 04:33N 46°22' W 124°30'5 5.0
2016-Aug-18 03:33N 46°19' W 124°24'2 2.1
2016-Aug-18 02:33N 46°19' W 124°21'2 2.4
2016-Aug-18 01:33N 46°20' W 124°24'2 2.4
2016-Aug-18 00:32N 46°22' W 124°25'2 2.5
2016-Aug-17 23:33N 46°25' W 124°26'2 1.5
2016-Aug-17 22:32N 46°26' W 124°25'2 1.9
2016-Aug-17 21:33N 46°24' W 124°25'2 2.3
2016-Aug-17 20:33N 46°22' W 124°24'2 2.3
2016-Aug-17 19:33N 46°20' W 124°22'3 2.6
2016-Aug-17 18:33N 46°18' W 124°19'4 4.3
2016-Aug-17 17:33N 46°14' W 124°19'2 2.3
2016-Aug-17 16:33N 46°12' W 124°20'2 2.5
2016-Aug-17 15:33N 46°09' W 124°20'2 2.4
2016-Aug-17 14:33N 46°07' W 124°20'2 2.3
2016-Aug-17 13:33N 46°05' W 124°19'1 1.0
2016-Aug-17 12:33N 46°05' W 124°19'2 2.4
2016-Aug-17 11:33N 46°08' W 124°20'2 2.5
2016-Aug-17 10:34N 46°10' W 124°20'2 2.5
2016-Aug-17 09:33N 46°13' W 124°19'4 4.3
2016-Aug-17 08:33N 46°17' W 124°21'8 8.0
2016-Aug-17 07:33N 46°25' W 124°23'8 7.9
2016-Aug-17 06:33N 46°33' W 124°24'1 1.4
2016-Aug-17 05:33N 46°34' W 124°25'2 2.4
2016-Aug-17 04:33N 46°32' W 124°25'2 2.4
2016-Aug-17 03:33N 46°29' W 124°25'2 2.4
2016-Aug-17 02:33N 46°27' W 124°24'2 2.4
2016-Aug-17 01:33N 46°25' W 124°26'1 1.4
2016-Aug-17 00:34N 46°23' W 124°25'2 2.2
2016-Aug-16 23:33N 46°21' W 124°25'2 2.3
2016-Aug-16 22:33N 46°19' W 124°23'3 2.5
2016-Aug-16 21:33N 46°17' W 124°21'2 1.7
2016-Aug-16 20:33N 46°19' W 124°20'2 2.4
2016-Aug-16 19:33N 46°21' W 124°21'2 2.4
2016-Aug-16 18:33N 46°23' W 124°23'2 2.4
2016-Aug-16 17:34N 46°25' W 124°24'1 1.0
2016-Aug-16 16:33N 46°25' W 124°26'2 2.4
2016-Aug-16 15:34N 46°23' W 124°24'2 2.4
2016-Aug-16 14:33N 46°21' W 124°23'2 2.5
2016-Aug-16 13:33N 46°19' W 124°20'0 0.3
2016-Aug-16 12:33N 46°19' W 124°20'2 2.3
2016-Aug-16 11:33N 46°19' W 124°23'2 2.5
2016-Aug-16 10:33N 46°20' W 124°27'2 2.4
2016-Aug-16 09:33N 46°20' W 124°30'2 2.3
2016-Aug-16 08:33N 46°21' W 124°33'5 4.9
2016-Aug-16 07:33N 46°18' W 124°39'16 5.3
2016-Aug-16 04:33N 46°04' W 124°51'2 2.3
2016-Aug-16 03:33N 46°02' W 124°50'2 2.3
2016-Aug-16 02:33N 45°60' W 124°48'2 2.4
2016-Aug-16 01:33N 45°58' W 124°46'2 2.2
2016-Aug-16 00:33N 45°56' W 124°45'2 2.4
2016-Aug-15 23:33N 45°54' W 124°46'  

Dump ship's entire track history